createdAt,value
2022-12-14T00:00:48.151Z,12.57
2022-12-14T00:10:50.642Z,13.73
2022-12-14T00:20:53.535Z,13.70
2022-12-14T00:30:59.317Z,13.23
2022-12-14T00:41:02.199Z,13.00
2022-12-14T00:51:05.001Z,13.73
2022-12-14T01:01:10.348Z,13.97
2022-12-14T01:11:14.954Z,14.37
2022-12-14T01:21:21.543Z,13.40
2022-12-14T01:31:31.742Z,14.13
2022-12-14T01:41:37.874Z,15.13
2022-12-14T01:51:44.485Z,14.83
2022-12-14T02:01:48.542Z,14.60
2022-12-14T02:12:11.286Z,14.97
2022-12-14T02:22:13.622Z,15.90
2022-12-14T02:32:31.279Z,16.13
2022-12-14T02:42:44.071Z,15.07
2022-12-14T02:53:34.075Z,14.83
2022-12-14T03:03:36.452Z,15.87
2022-12-14T03:13:49.150Z,16.27
2022-12-14T03:23:53.982Z,16.73
2022-12-14T03:34:00.608Z,16.03
2022-12-14T03:44:11.201Z,15.90
2022-12-14T03:54:28.704Z,16.10
2022-12-14T04:04:40.494Z,17.40
2022-12-14T04:15:09.529Z,16.97
2022-12-14T04:25:48.855Z,15.93
2022-12-14T04:35:54.822Z,16.67
2022-12-14T04:46:07.117Z,16.30
2022-12-14T04:56:36.292Z,16.13
2022-12-14T05:06:54.638Z,17.10
2022-12-14T05:16:58.090Z,17.33
2022-12-14T05:27:00.659Z,17.17
2022-12-14T05:37:03.480Z,16.83
2022-12-14T05:47:06.338Z,17.93
2022-12-14T05:57:08.894Z,18.00
2022-12-14T06:07:11.884Z,17.03
2022-12-14T06:17:14.666Z,17.10
2022-12-14T06:27:17.714Z,18.83
2022-12-14T06:37:20.676Z,16.57
2022-12-14T06:47:23.991Z,18.20
2022-12-14T06:57:27.558Z,17.67
2022-12-14T07:07:39.508Z,19.30
2022-12-14T07:17:41.995Z,18.27
2022-12-14T07:27:45.183Z,19.57
2022-12-14T07:37:50.321Z,19.80
2022-12-14T07:47:53.338Z,20.37
2022-12-14T07:57:56.362Z,20.83
2022-12-14T08:07:59.251Z,18.67
2022-12-14T08:18:02.074Z,20.00
2022-12-14T08:28:04.955Z,19.30
2022-12-14T08:38:07.632Z,20.37
2022-12-14T08:48:10.553Z,18.00
2022-12-14T08:58:16.727Z,18.60
2022-12-14T09:08:19.591Z,19.40
2022-12-14T09:18:22.658Z,18.00
2022-12-14T09:28:25.687Z,17.40
2022-12-14T09:38:28.383Z,17.13
2022-12-14T09:48:31.472Z,17.67
2022-12-14T09:58:35.718Z,15.07
2022-12-14T10:08:56.536Z,16.03
2022-12-14T10:19:03.869Z,17.20
2022-12-14T10:29:15.995Z,17.20
2022-12-14T10:39:33.841Z,15.67
2022-12-14T10:50:02.689Z,17.67
2022-12-14T11:00:22.573Z,15.87
2022-12-14T11:10:33.754Z,15.73
2022-12-14T11:20:36.790Z,16.27
2022-12-14T11:30:40.805Z,16.43
2022-12-14T11:40:44.347Z,16.10
2022-12-14T11:50:49.839Z,17.30
2022-12-14T12:01:06.560Z,14.93
2022-12-14T12:11:25.106Z,16.40
2022-12-14T12:21:35.785Z,13.93
2022-12-14T12:31:49.683Z,13.23
2022-12-14T12:42:46.775Z,14.83
2022-12-14T12:52:57.790Z,15.10
2022-12-14T13:03:48.365Z,15.43
2022-12-14T13:13:59.873Z,15.00
2022-12-14T13:24:07.632Z,15.33
2022-12-14T13:34:57.024Z,13.83
2022-12-14T13:45:25.364Z,13.10
2022-12-14T13:55:47.647Z,14.53
2022-12-14T14:05:58.206Z,14.37
2022-12-14T14:16:28.001Z,13.77
2022-12-14T14:26:35.039Z,12.47
2022-12-14T14:36:37.907Z,12.50
2022-12-14T14:46:45.090Z,12.93
2022-12-14T14:56:51.892Z,13.03
2022-12-14T15:06:59.999Z,12.77
2022-12-14T15:17:18.724Z,13.70
2022-12-14T15:27:37.445Z,13.70
2022-12-14T15:37:59.971Z,12.13
2022-12-14T15:48:22.798Z,8.00
2022-12-14T15:58:34.645Z,5.67
2022-12-14T16:08:41.178Z,6.10
2022-12-14T16:18:50.669Z,4.67
2022-12-14T16:29:19.922Z,4.30
2022-12-14T16:39:23.734Z,3.57
2022-12-14T16:49:41.173Z,2.17
2022-12-14T16:59:46.638Z,4.07
2022-12-14T17:09:49.308Z,4.97
2022-12-14T17:19:52.424Z,5.27
2022-12-14T17:29:57.592Z,17.13
2022-12-14T17:50:02.955Z,15.57
2022-12-14T18:00:24.485Z,14.50
